Time,TemperatureF,DewpointF,PressureIn,WindDirection,WindDirectionDegrees,WindSpeedMPH,WindSpeedGustMPH,Humidity,HourlyPrecipIn,Conditions,Clouds,dailyrainin,SoftwareType,DateUTC
2013-04-26 00:03:00,41.0,38.0,30.27,WSW,255,0.0,-999.0,90,-99.99,,,-99.99,,2013-04-26 04:03:00,
2013-04-26 00:12:00,41.0,38.0,30.27,WSW,255,0.0,-999.0,90,-99.99,,,-99.99,,2013-04-26 04:12:00,
2013-04-26 00:23:00,41.0,38.0,30.28,WSW,255,0.0,-999.0,90,-99.99,,,-99.99,,2013-04-26 04:23:00,
2013-04-26 00:32:00,41.0,38.0,30.28,WSW,255,1.0,-999.0,90,-99.99,,,-99.99,,2013-04-26 04:32:00,
2013-04-26 00:43:00,41.0,38.0,30.28,WSW,255,1.0,-999.0,90,-99.99,,,-99.99,,2013-04-26 04:43:00,
2013-04-26 00:53:00,42.0,40.0,30.28,WSW,239,3.0,-999.0,91,-99.99,,,-99.99,,2013-04-26 04:53:00,
2013-04-26 01:02:00,41.0,39.0,30.28,SW,234,1.0,-999.0,91,-99.99,,,-99.99,,2013-04-26 05:02:00,
2013-04-26 01:13:00,41.0,39.0,30.28,SW,234,1.0,-999.0,91,-99.99,,,-99.99,,2013-04-26 05:13:00,
2013-04-26 01:22:00,41.0,38.0,30.28,SW,234,2.0,-999.0,90,-99.99,,,-99.99,,2013-04-26 05:22:00,
2013-04-26 01:32:00,41.0,39.0,30.29,SW,234,1.0,-999.0,91,-99.99,,,-99.99,,2013-04-26 05:32:00,
2013-04-26 01:42:00,41.0,39.0,30.29,SW,234,1.0,-999.0,91,-99.99,,,-99.99,,2013-04-26 05:42:00,
2013-04-26 01:52:00,40.0,37.0,30.29,SW,234,1.0,-999.0,90,-99.99,,,-99.99,,2013-04-26 05:52:00,
2013-04-26 02:02:00,40.0,37.0,30.29,SW,234,2.0,-999.0,90,-99.99,,,-99.99,,2013-04-26 06:02:00,
2013-04-26 02:12:00,40.0,37.0,30.29,SW,234,2.0,-999.0,90,-99.99,,,-99.99,,2013-04-26 06:12:00,
2013-04-26 02:22:00,40.0,37.0,30.30,WSW,238,3.0,-999.0,90,-99.99,,,-99.99,,2013-04-26 06:22:00,
2013-04-26 02:32:00,40.0,37.0,30.30,WSW,247,4.0,-999.0,90,-99.99,,,-99.99,,2013-04-26 06:32:00,
2013-04-26 02:42:00,40.0,37.0,30.30,WSW,247,4.0,-999.0,90,-99.99,,,-99.99,,2013-04-26 06:42:00,
2013-04-26 02:52:00,40.0,37.0,30.30,WSW,248,3.0,-999.0,89,-99.99,,,-99.99,,2013-04-26 06:52:00,
2013-04-26 03:02:00,39.0,36.0,30.31,WSW,248,2.0,-999.0,89,-99.99,,,-99.99,,2013-04-26 07:02:00,
2013-04-26 03:11:00,39.0,36.0,30.31,WSW,248,2.0,-999.0,89,-99.99,,,-99.99,,2013-04-26 07:11:00,
2013-04-26 03:22:00,39.0,36.0,30.31,WSW,248,1.0,-999.0,90,-99.99,,,-99.99,,2013-04-26 07:22:00,
2013-04-26 03:32:00,39.0,36.0,30.31,WSW,248,1.0,-999.0,90,-99.99,,,-99.99,,2013-04-26 07:32:00,
2013-04-26 03:42:00,39.0,36.0,30.31,WSW,248,1.0,-999.0,90,-99.99,,,-99.99,,2013-04-26 07:42:00,
2013-04-26 03:52:00,39.0,37.0,30.31,WSW,248,1.0,-999.0,91,-99.99,,,-99.99,,2013-04-26 07:52:00,
2013-04-26 04:03:00,39.0,37.0,30.32,WSW,248,0.0,-999.0,91,-99.99,,,-99.99,,2013-04-26 08:03:00,
2013-04-26 04:11:00,39.0,37.0,30.32,WSW,248,0.0,-999.0,91,-99.99,,,-99.99,,2013-04-26 08:11:00,
2013-04-26 04:22:00,39.0,37.0,30.32,WSW,248,0.0,-999.0,91,-99.99,,,-99.99,,2013-04-26 08:22:00,
2013-04-26 04:32:00,39.0,37.0,30.33,WSW,248,1.0,-999.0,91,-99.99,,,-99.99,,2013-04-26 08:32:00,
2013-04-26 04:42:00,39.0,37.0,30.33,WSW,248,1.0,-999.0,91,-99.99,,,-99.99,,2013-04-26 08:42:00,
2013-04-26 04:52:00,39.0,37.0,30.33,WSW,248,0.0,-999.0,91,-99.99,,,-99.99,,2013-04-26 08:52:00,
2013-04-26 05:02:00,38.0,36.0,30.34,WSW,248,1.0,-999.0,92,-99.99,,,-99.99,,2013-04-26 09:02:00,
2013-04-26 05:12:00,38.0,36.0,30.34,WSW,248,1.0,-999.0,92,-99.99,,,-99.99,,2013-04-26 09:12:00,
2013-04-26 05:22:00,38.0,36.0,30.34,WSW,248,0.0,-999.0,92,-99.99,,,-99.99,,2013-04-26 09:22:00,
2013-04-26 05:33:00,38.0,36.0,30.34,WSW,248,1.0,-999.0,91,-99.99,,,-99.99,,2013-04-26 09:33:00,
2013-04-26 05:43:00,38.0,36.0,30.34,WSW,248,1.0,-999.0,91,-99.99,,,-99.99,,2013-04-26 09:43:00,
2013-04-26 05:53:00,38.0,36.0,30.36,WSW,248,1.0,-999.0,92,-99.99,,,-99.99,,2013-04-26 09:53:00,
2013-04-26 06:03:00,37.0,35.0,30.36,WSW,248,0.0,-999.0,92,-99.99,,,-99.99,,2013-04-26 10:03:00,
2013-04-26 06:12:00,37.0,35.0,30.36,WSW,248,0.0,-999.0,92,-99.99,,,-99.99,,2013-04-26 10:12:00,
2013-04-26 06:23:00,37.0,35.0,30.36,WSW,248,0.0,-999.0,92,-99.99,,,-99.99,,2013-04-26 10:23:00,
2013-04-26 06:33:00,37.0,35.0,30.37,WSW,248,0.0,-999.0,92,-99.99,,,-99.99,,2013-04-26 10:33:00,
2013-04-26 06:42:00,37.0,35.0,30.37,WSW,248,0.0,-999.0,92,-99.99,,,-99.99,,2013-04-26 10:42:00,
2013-04-26 06:52:00,37.0,35.0,30.38,WSW,248,0.0,-999.0,92,-99.99,,,-99.99,,2013-04-26 10:52:00,
2013-04-26 07:02:00,37.0,35.0,30.39,WSW,248,1.0,-999.0,93,-99.99,,,-99.99,,2013-04-26 11:02:00,
2013-04-26 07:11:00,37.0,35.0,30.39,WSW,248,1.0,-999.0,93,-99.99,,,-99.99,,2013-04-26 11:11:00,
2013-04-26 07:22:00,37.0,35.0,30.40,WSW,248,1.0,-999.0,93,-99.99,,,-99.99,,2013-04-26 11:22:00,
2013-04-26 07:32:00,37.0,35.0,30.40,WSW,248,2.0,-999.0,93,-99.99,,,-99.99,,2013-04-26 11:32:00,
2013-04-26 07:42:00,37.0,35.0,30.40,WSW,248,2.0,-999.0,93,-99.99,,,-99.99,,2013-04-26 11:42:00,
2013-04-26 07:52:00,38.0,36.0,30.41,WSW,248,1.0,-999.0,93,-99.99,,,-99.99,,2013-04-26 11:52:00,
2013-04-26 08:02:00,38.0,36.0,30.41,WSW,248,1.0,-999.0,93,-99.99,,,-99.99,,2013-04-26 12:02:00,
2013-04-26 08:12:00,38.0,36.0,30.41,WSW,248,1.0,-999.0,93,-99.99,,,-99.99,,2013-04-26 12:12:00,
2013-04-26 08:22:00,39.0,37.0,30.41,WSW,248,1.0,-999.0,93,-99.99,,,-99.99,,2013-04-26 12:22:00,
2013-04-26 08:32:00,40.0,38.0,30.41,WSW,248,1.0,-999.0,92,-99.99,,,-99.99,,2013-04-26 12:32:00,
2013-04-26 08:42:00,40.0,38.0,30.41,WSW,248,1.0,-999.0,92,-99.99,,,-99.99,,2013-04-26 12:42:00,
2013-04-26 08:52:00,41.0,38.0,30.42,WSW,247,2.0,-999.0,90,-99.99,,,-99.99,,2013-04-26 12:52:00,
2013-04-26 09:01:00,42.0,38.0,30.42,WSW,246,1.0,-999.0,86,-99.99,,,-99.99,,2013-04-26 13:01:00,
2013-04-26 09:11:00,42.0,38.0,30.42,WSW,246,1.0,-999.0,86,-99.99,,,-99.99,,2013-04-26 13:11:00,
2013-04-26 09:22:00,44.0,39.0,30.42,WSW,244,2.0,-999.0,83,-99.99,,,-99.99,,2013-04-26 13:22:00,
2013-04-26 09:32:00,44.0,33.0,30.43,WSW,257,5.0,-999.0,66,-99.99,,,-99.99,,2013-04-26 13:32:00,
2013-04-26 09:42:00,44.0,33.0,30.43,WSW,257,5.0,-999.0,66,-99.99,,,-99.99,,2013-04-26 13:42:00,
2013-04-26 09:52:00,44.0,32.0,30.44,WNW,284,5.0,-999.0,62,-99.99,,,-99.99,,2013-04-26 13:52:00,
2013-04-26 10:02:00,45.0,32.0,30.44,West,263,6.0,-999.0,59,-99.99,,,-99.99,,2013-04-26 14:02:00,
2013-04-26 10:11:00,45.0,32.0,30.44,West,263,6.0,-999.0,59,-99.99,,,-99.99,,2013-04-26 14:11:00,
2013-04-26 10:21:00,46.0,30.0,30.44,West,263,4.0,-999.0,54,-99.99,,,-99.99,,2013-04-26 14:21:00,
2013-04-26 10:32:00,46.0,32.0,30.44,WNW,284,3.0,-999.0,57,-99.99,,,-99.99,,2013-04-26 14:32:00,
2013-04-26 10:42:00,46.0,32.0,30.44,WNW,284,3.0,-999.0,57,-99.99,,,-99.99,,2013-04-26 14:42:00,
2013-04-26 10:52:00,46.0,30.0,30.44,West,281,5.0,-999.0,53,-99.99,,,-99.99,,2013-04-26 14:52:00,
2013-04-26 11:01:00,46.0,30.0,30.45,West,273,4.0,-999.0,53,-99.99,,,-99.99,,2013-04-26 15:01:00,
2013-04-26 11:12:00,46.0,30.0,30.45,West,273,4.0,-999.0,53,-99.99,,,-99.99,,2013-04-26 15:12:00,
2013-04-26 11:22:00,46.0,30.0,30.45,NW,324,3.0,-999.0,54,-99.99,,,-99.99,,2013-04-26 15:22:00,
2013-04-26 11:33:00,46.0,31.0,30.45,NNE,17,6.0,-999.0,56,-99.99,,,-99.99,,2013-04-26 15:33:00,
2013-04-26 11:43:00,46.0,31.0,30.45,NNE,17,6.0,-999.0,56,-99.99,,,-99.99,,2013-04-26 15:43:00,
2013-04-26 11:53:00,47.0,33.0,30.46,NNW,331,4.0,-999.0,59,-99.99,,,-99.99,,2013-04-26 15:53:00,
2013-04-26 12:03:00,47.0,33.0,30.45,NNE,26,5.0,-999.0,59,-99.99,,,-99.99,,2013-04-26 16:03:00,
2013-04-26 12:13:00,47.0,33.0,30.45,NNE,26,5.0,-999.0,59,-99.99,,,-99.99,,2013-04-26 16:13:00,
2013-04-26 12:23:00,47.0,33.0,30.46,NW,315,6.0,-999.0,57,-99.99,,,-99.99,,2013-04-26 16:23:00,
2013-04-26 12:33:00,47.0,32.0,30.46,WNW,289,5.0,-999.0,55,-99.99,,,-99.99,,2013-04-26 16:33:00,
2013-04-26 12:42:00,47.0,32.0,30.46,WNW,289,5.0,-999.0,55,-99.99,,,-99.99,,2013-04-26 16:42:00,
2013-04-26 12:52:00,47.0,33.0,30.46,NNW,342,5.0,-999.0,58,-99.99,,,-99.99,,2013-04-26 16:52:00,
2013-04-26 13:02:00,47.0,33.0,30.46,NW,322,5.0,-999.0,58,-99.99,,,-99.99,,2013-04-26 17:02:00,
2013-04-26 13:12:00,47.0,33.0,30.46,NW,322,5.0,-999.0,58,-99.99,,,-99.99,,2013-04-26 17:12:00,
2013-04-26 13:22:00,47.0,33.0,30.46,NE,46,6.0,-999.0,57,-99.99,,,-99.99,,2013-04-26 17:22:00,
2013-04-26 13:32:00,47.0,33.0,30.46,NNW,329,6.0,-999.0,57,-99.99,,,-99.99,,2013-04-26 17:32:00,
2013-04-26 13:42:00,47.0,33.0,30.46,NNW,329,6.0,-999.0,57,-99.99,,,-99.99,,2013-04-26 17:42:00,
2013-04-26 13:52:00,48.0,33.0,30.46,NW,321,7.0,-999.0,55,-99.99,,,-99.99,,2013-04-26 17:52:00,
2013-04-26 14:02:00,48.0,34.0,30.46,NNW,340,8.0,-999.0,59,-99.99,,,-99.99,,2013-04-26 18:02:00,
2013-04-26 14:12:00,48.0,34.0,30.46,NNW,340,8.0,-999.0,59,-99.99,,,-99.99,,2013-04-26 18:12:00,
2013-04-26 14:22:00,47.0,33.0,30.46,NNW,344,6.0,-999.0,58,-99.99,,,-99.99,,2013-04-26 18:22:00,
2013-04-26 14:33:00,47.0,33.0,30.46,NNW,333,8.0,-999.0,59,-99.99,,,-99.99,,2013-04-26 18:33:00,
2013-04-26 14:42:00,47.0,33.0,30.46,NNW,333,8.0,-999.0,59,-99.99,,,-99.99,,2013-04-26 18:42:00,
2013-04-26 14:52:00,47.0,33.0,30.46,NNW,337,8.0,-999.0,57,-99.99,,,-99.99,,2013-04-26 18:52:00,
2013-04-26 15:02:00,47.0,33.0,30.46,NNW,334,8.0,-999.0,57,-99.99,,,-99.99,,2013-04-26 19:02:00,
2013-04-26 15:12:00,47.0,33.0,30.46,NNW,334,8.0,-999.0,57,-99.99,,,-99.99,,2013-04-26 19:12:00,
2013-04-26 15:22:00,47.0,33.0,30.46,NE,40,8.0,-999.0,57,-99.99,,,-99.99,,2013-04-26 19:22:00,
2013-04-26 15:32:00,47.0,30.0,30.46,WNW,292,9.0,-999.0,52,-99.99,,,-99.99,,2013-04-26 19:32:00,
2013-04-26 15:42:00,47.0,30.0,30.46,WNW,292,9.0,-999.0,52,-99.99,,,-99.99,,2013-04-26 19:42:00,
2013-04-26 15:52:00,48.0,32.0,30.46,NE,36,6.0,-999.0,53,-99.99,,,-99.99,,2013-04-26 19:52:00,
2013-04-26 16:02:00,47.0,28.0,30.46,North,355,8.0,-999.0,48,-99.99,,,-99.99,,2013-04-26 20:02:00,
2013-04-26 16:11:00,47.0,28.0,30.46,North,355,8.0,-999.0,48,-99.99,,,-99.99,,2013-04-26 20:11:00,
2013-04-26 16:22:00,48.0,29.0,30.46,North,350,8.0,-999.0,47,-99.99,,,-99.99,,2013-04-26 20:22:00,
2013-04-26 16:32:00,48.0,30.0,30.46,NNW,338,8.0,-999.0,49,-99.99,,,-99.99,,2013-04-26 20:32:00,
2013-04-26 16:42:00,48.0,30.0,30.46,NNW,338,8.0,-999.0,49,-99.99,,,-99.99,,2013-04-26 20:42:00,
2013-04-26 16:52:00,48.0,30.0,30.45,NNE,13,8.0,-999.0,50,-99.99,,,-99.99,,2013-04-26 20:52:00,
2013-04-26 17:02:00,48.0,30.0,30.45,NW,317,9.0,-999.0,50,-99.99,,,-99.99,,2013-04-26 21:02:00,
2013-04-26 17:11:00,48.0,30.0,30.45,NW,317,9.0,-999.0,50,-99.99,,,-99.99,,2013-04-26 21:11:00,
2013-04-26 17:22:00,48.0,31.0,30.44,North,355,9.0,-999.0,52,-99.99,,,-99.99,,2013-04-26 21:22:00,
2013-04-26 17:33:00,48.0,30.0,30.44,North,5,9.0,-999.0,50,-99.99,,,-99.99,,2013-04-26 21:33:00,
2013-04-26 17:42:00,48.0,30.0,30.44,North,5,9.0,-999.0,50,-99.99,,,-99.99,,2013-04-26 21:42:00,
2013-04-26 17:53:00,48.0,29.0,30.43,NW,322,7.0,-999.0,48,-99.99,,,-99.99,,2013-04-26 21:53:00,
2013-04-26 18:03:00,48.0,30.0,30.44,NNW,330,6.0,-999.0,49,-99.99,,,-99.99,,2013-04-26 22:03:00,
2013-04-26 18:13:00,48.0,30.0,30.44,NNW,330,6.0,-999.0,49,-99.99,,,-99.99,,2013-04-26 22:13:00,
2013-04-26 18:23:00,49.0,29.0,30.43,NW,324,6.0,-999.0,46,-99.99,,,-99.99,,2013-04-26 22:23:00,
2013-04-26 18:33:00,48.0,28.0,30.43,NNW,348,5.0,-999.0,46,-99.99,,,-99.99,,2013-04-26 22:33:00,
2013-04-26 18:42:00,48.0,28.0,30.43,NNW,348,5.0,-999.0,46,-99.99,,,-99.99,,2013-04-26 22:42:00,
2013-04-26 18:52:00,49.0,29.0,30.42,NE,42,3.0,-999.0,46,-99.99,,,-99.99,,2013-04-26 22:52:00,
2013-04-26 19:02:00,49.0,28.0,30.42,NNE,19,2.0,-999.0,44,-99.99,,,-99.99,,2013-04-26 23:02:00,
2013-04-26 19:12:00,49.0,28.0,30.42,NNE,19,2.0,-999.0,44,-99.99,,,-99.99,,2013-04-26 23:12:00,
2013-04-26 19:21:00,48.0,27.0,30.42,North,360,4.0,-999.0,43,-99.99,,,-99.99,,2013-04-26 23:21:00,
2013-04-26 19:32:00,48.0,28.0,30.42,NE,36,2.0,-999.0,45,-99.99,,,-99.99,,2013-04-26 23:32:00,
2013-04-26 19:42:00,48.0,28.0,30.42,NE,36,2.0,-999.0,45,-99.99,,,-99.99,,2013-04-26 23:42:00,
2013-04-26 19:52:00,48.0,30.0,30.42,NE,51,1.0,-999.0,49,-99.99,,,-99.99,,2013-04-26 23:52:00,
2013-04-26 20:01:00,47.0,29.0,30.42,NE,51,1.0,-999.0,50,-99.99,,,-99.99,,2013-04-27 00:01:00,
2013-04-26 20:11:00,47.0,29.0,30.42,NE,51,1.0,-999.0,50,-99.99,,,-99.99,,2013-04-27 00:11:00,
2013-04-26 20:21:00,47.0,29.0,30.42,NE,51,0.0,-999.0,50,-99.99,,,-99.99,,2013-04-27 00:21:00,
2013-04-26 20:32:00,47.0,30.0,30.42,NE,51,0.0,-999.0,51,-99.99,,,-99.99,,2013-04-27 00:32:00,
2013-04-26 20:42:00,47.0,30.0,30.42,NE,51,0.0,-999.0,51,-99.99,,,-99.99,,2013-04-27 00:42:00,
2013-04-26 20:51:00,46.0,30.0,30.42,NE,51,0.0,-999.0,53,-99.99,,,-99.99,,2013-04-27 00:51:00,
2013-04-26 21:01:00,45.0,30.0,30.42,NE,51,0.0,-999.0,56,-99.99,,,-99.99,,2013-04-27 01:01:00,
2013-04-26 21:12:00,45.0,30.0,30.42,NE,51,0.0,-999.0,56,-99.99,,,-99.99,,2013-04-27 01:12:00,
2013-04-26 21:21:00,45.0,31.0,30.43,NE,51,0.0,-999.0,57,-99.99,,,-99.99,,2013-04-27 01:21:00,
2013-04-26 21:32:00,44.0,31.0,30.43,NE,51,0.0,-999.0,59,-99.99,,,-99.99,,2013-04-27 01:32:00,
2013-04-26 21:42:00,44.0,31.0,30.43,NE,51,0.0,-999.0,59,-99.99,,,-99.99,,2013-04-27 01:42:00,
2013-04-26 21:52:00,43.0,30.0,30.42,NE,51,0.0,-999.0,61,-99.99,,,-99.99,,2013-04-27 01:52:00,
2013-04-26 22:02:00,43.0,32.0,30.43,NE,51,0.0,-999.0,64,-99.99,,,-99.99,,2013-04-27 02:02:00,
2013-04-26 22:11:00,43.0,32.0,30.43,NE,51,0.0,-999.0,64,-99.99,,,-99.99,,2013-04-27 02:11:00,
2013-04-26 22:22:00,42.0,31.0,30.43,NE,51,0.0,-999.0,65,-99.99,,,-99.99,,2013-04-27 02:22:00,
2013-04-26 22:32:00,42.0,31.0,30.43,NE,51,0.0,-999.0,66,-99.99,,,-99.99,,2013-04-27 02:32:00,
2013-04-26 22:42:00,42.0,31.0,30.43,NE,51,0.0,-999.0,66,-99.99,,,-99.99,,2013-04-27 02:42:00,
2013-04-26 22:52:00,42.0,31.0,30.43,NE,51,0.0,-999.0,66,-99.99,,,-99.99,,2013-04-27 02:52:00,
2013-04-26 23:02:00,41.0,31.0,30.42,NE,51,0.0,-999.0,67,-99.99,,,-99.99,,2013-04-27 03:02:00,
2013-04-26 23:11:00,41.0,31.0,30.42,NE,51,0.0,-999.0,67,-99.99,,,-99.99,,2013-04-27 03:11:00,
2013-04-26 23:22:00,41.0,31.0,30.42,NE,51,0.0,-999.0,68,-99.99,,,-99.99,,2013-04-27 03:22:00,
2013-04-26 23:33:00,41.0,31.0,30.42,NE,51,0.0,-999.0,67,-99.99,,,-99.99,,2013-04-27 03:33:00,
2013-04-26 23:43:00,41.0,31.0,30.42,NE,51,0.0,-999.0,67,-99.99,,,-99.99,,2013-04-27 03:43:00,
2013-04-26 23:53:00,41.0,31.0,30.42,NE,51,0.0,-999.0,68,-99.99,,,-99.99,,2013-04-27 03:53:00,